Time;durP1;ratioP1;P1;durP2;ratioP2;P2;SDS_P1;SDS_P2;PMS_P1;PMS_P2;Temp;Humidity;BMP_temperature;BMP_pressure;BME280_temperature;BME280_humidity;BME280_pressure;Samples;Min_cycle;Max_cycle;Signal;HPM_P1;HPM_P2
2021/07/12 00:00:18;;;;;;;15.85;11.10;;;;;;;20.50;77.79;100670.33;1821720;78;20900;-74
2021/07/12 00:02:45;;;;;;;13.00;10.98;;;;;;;20.49;77.85;100669.14;1821694;78;21531;-76
2021/07/12 00:05:13;;;;;;;20.40;10.48;;;;;;;20.47;78.07;100668.46;1821446;78;20927;-75
2021/07/12 00:07:41;;;;;;;16.02;10.78;;;;;;;20.44;78.13;100672.78;1821532;78;20955;-75
2021/07/12 00:10:12;;;;;;;14.73;11.05;;;;;;;20.43;78.23;100673.28;1821445;78;20875;-74
2021/07/12 00:12:41;;;;;;;14.63;11.53;;;;;;;20.43;78.36;100665.77;1821787;78;20978;-75
2021/07/12 00:15:11;;;;;;;14.28;11.10;;;;;;;20.42;78.49;100664.10;1821532;78;20856;-75
2021/07/12 00:17:38;;;;;;;11.90;10.55;;;;;;;20.41;78.60;100673.93;1821820;78;21539;-75
2021/07/12 00:20:08;;;;;;;15.30;11.60;;;;;;;20.40;78.65;100667.42;1821522;78;20876;-74
2021/07/12 00:22:35;;;;;;;14.05;11.78;;;;;;;20.39;78.66;100663.09;1821825;78;20923;-74
2021/07/12 00:25:06;;;;;;;21.30;11.48;;;;;;;20.38;78.70;100660.07;1821887;78;20939;-75
2021/07/12 00:27:33;;;;;;;14.80;11.48;;;;;;;20.35;78.79;100661.22;1821729;78;22179;-75
2021/07/12 00:30:04;;;;;;;14.65;10.88;;;;;;;20.34;79.05;100657.37;1821520;78;20962;-76
2021/07/12 00:32:31;;;;;;;15.53;10.13;;;;;;;20.31;79.46;100658.52;1821826;78;20876;-76
2021/07/12 00:34:58;;;;;;;15.25;11.85;;;;;;;20.27;79.56;100657.16;1821692;78;21388;-75
2021/07/12 00:37:26;;;;;;;19.35;12.53;;;;;;;20.24;79.86;100662.80;1821412;78;20864;-77
2021/07/12 00:39:54;;;;;;;14.23;11.83;;;;;;;20.22;80.19;100662.94;1821495;78;21555;-77
2021/07/12 00:42:22;;;;;;;14.35;10.90;;;;;;;20.20;80.39;100660.92;1821409;78;20896;-76
2021/07/12 00:44:50;;;;;;;13.85;12.43;;;;;;;20.19;80.49;100663.27;1824934;78;21329;-76
2021/07/12 00:47:19;;;;;;;14.23;11.70;;;;;;;20.17;80.47;100659.09;1824893;78;20934;-75
2021/07/12 00:49:45;;;;;;;16.85;11.85;;;;;;;20.15;80.41;100651.74;1824986;78;20958;-75
2021/07/12 00:52:12;;;;;;;13.08;10.78;;;;;;;20.14;80.35;100654.05;1824935;78;21580;-76
2021/07/12 00:54:40;;;;;;;12.80;11.50;;;;;;;20.12;80.42;100660.02;1824793;78;21344;-76
2021/07/12 00:57:07;;;;;;;13.15;10.60;;;;;;;20.11;80.43;100657.03;1824864;78;20919;-76
2021/07/12 00:59:35;;;;;;;12.20;10.80;;;;;;;20.09;80.45;100657.17;1825271;78;21337;-76
2021/07/12 01:02:04;;;;;;;14.35;11.53;;;;;;;20.07;80.68;100657.31;1824811;78;20979;-74
2021/07/12 01:04:33;;;;;;;15.65;12.60;;;;;;;20.06;80.66;100656.16;1824884;78;21166;-76
2021/07/12 01:07:02;;;;;;;26.95;23.95;;;;;;;20.06;80.73;100661.48;1824738;78;20912;-75
2021/07/12 01:09:30;;;;;;;33.90;26.33;;;;;;;20.04;80.63;100653.64;1825121;78;21360;-77
2021/07/12 01:12:09;;;;;;;23.90;20.00;;;;;;;20.04;80.57;100659.47;1824922;78;20880;-74
2021/07/12 01:14:46;;;;;;;29.10;21.02;;;;;;;20.02;80.51;100654.28;1824896;78;21372;-74
2021/07/12 01:17:50;;;;;;;21.45;18.25;;;;;;;20.00;80.38;100669.57;1823442;78;21361;-74
2021/07/12 01:21:09;;;;;;;17.62;15.70;;;;;;;20.00;80.51;100682.05;1824743;78;21396;-74
2021/07/12 01:24:02;;;;;;;19.15;13.10;;;;;;;19.98;80.52;100681.36;1791391;80;21388;-74
2021/07/12 01:27:23;;;;;;;14.20;12.57;;;;;;;19.94;80.55;100679.98;1792190;80;20934;-74
2021/07/12 01:30:10;;;;;;;15.32;12.75;;;;;;;19.90;80.56;100692.78;1791703;79;20847;-75
2021/07/12 01:33:11;;;;;;;16.48;13.15;;;;;;;19.88;80.53;100699.58;1741941;80;21581;-74
2021/07/12 01:36:14;;;;;;;16.62;13.58;;;;;;;19.87;80.31;100691.23;1791525;80;20902;-75
2021/07/12 01:39:07;;;;;;;13.78;11.93;;;;;;;19.86;80.16;100698.89;1791913;80;20958;-75
2021/07/12 01:41:57;;;;;;;16.57;12.10;;;;;;;19.87;80.37;100697.89;1791503;79;21521;-76
2021/07/12 01:44:58;;;;;;;15.53;13.10;;;;;;;19.86;80.37;100690.08;1784872;80;20978;-77
2021/07/12 01:47:37;;;;;;;15.23;13.35;;;;;;;19.86;80.37;100697.56;1783102;80;21076;-76
2021/07/12 01:50:21;;;;;;;15.13;13.72;;;;;;;19.85;80.53;100697.23;1782984;79;21488;-76
2021/07/12 01:53:18;;;;;;;14.07;12.73;;;;;;;19.84;80.47;100701.36;1783409;79;20859;-77
2021/07/12 01:56:09;;;;;;;18.67;12.98;;;;;;;19.82;80.33;100703.33;1821598;78;20923;-76
2021/07/12 01:58:47;;;;;;;16.62;12.73;;;;;;;19.79;80.40;100709.80;1821457;78;20892;-76
2021/07/12 02:01:15;;;;;;;14.95;13.45;;;;;;;19.77;80.49;100702.95;1821762;78;21120;-75
2021/07/12 02:03:43;;;;;;;16.55;14.03;;;;;;;19.73;80.55;100710.89;1821341;78;20927;-76
2021/07/12 02:06:11;;;;;;;13.95;12.60;;;;;;;19.71;80.62;100708.87;1821780;78;20891;-76
2021/07/12 02:08:43;;;;;;;14.85;13.38;;;;;;;19.67;80.54;100705.16;1821318;78;20931;-76
2021/07/12 02:11:16;;;;;;;16.87;13.83;;;;;;;19.66;80.64;100699.97;1821973;78;21018;-75
2021/07/12 02:13:49;;;;;;;15.80;14.30;;;;;;;19.65;80.74;100699.61;1821278;78;21366;-76
2021/07/12 02:16:19;;;;;;;17.73;14.60;;;;;;;19.65;80.75;100704.94;1821495;78;20935;-77
2021/07/12 02:18:47;;;;;;;15.23;13.80;;;;;;;19.64;80.61;100705.94;1821390;78;20868;-75
2021/07/12 02:21:18;;;;;;;15.30;13.75;;;;;;;19.64;80.59;100708.09;1818425;78;20860;-75
2021/07/12 02:23:47;;;;;;;19.17;14.68;;;;;;;19.65;80.79;100711.59;1821376;78;20876;-79
2021/07/12 02:26:14;;;;;;;14.68;13.28;;;;;;;19.64;80.82;100704.11;1821709;78;22128;-76
2021/07/12 02:28:44;;;;;;;16.00;14.47;;;;;;;19.65;80.89;100711.11;1821380;78;21005;-76
2021/07/12 02:31:13;;;;;;;16.37;13.35;;;;;;;19.66;80.92;100708.78;1821656;78;20986;-76
2021/07/12 02:33:41;;;;;;;16.55;14.90;;;;;;;19.66;80.92;100702.13;1821383;78;20867;-74
2021/07/12 02:36:08;;;;;;;18.05;15.43;;;;;;;19.68;80.85;100704.66;1821630;78;20892;-76
2021/07/12 02:38:37;;;;;;;16.15;14.50;;;;;;;19.67;80.71;100699.84;1821291;78;21188;-74
2021/07/12 02:41:06;;;;;;;16.30;14.78;;;;;;;19.69;80.77;100702.36;1821254;78;21440;-75
2021/07/12 02:43:33;;;;;;;16.87;14.87;;;;;;;19.72;80.73;100698.55;1822220;77;20919;-74
2021/07/12 02:46:01;;;;;;;19.57;13.60;;;;;;;19.74;80.70;100703.23;1824250;77;20886;-73
2021/07/12 02:48:29;;;;;;;18.37;14.07;;;;;;;19.76;80.72;100707.92;1824398;78;20883;-75
2021/07/12 02:50:56;;;;;;;15.85;14.13;;;;;;;19.78;80.84;100711.27;1824761;77;21190;-74
2021/07/12 02:53:29;;;;;;;15.85;14.30;;;;;;;19.79;80.91;100718.28;1824669;78;20919;-75
2021/07/12 02:55:57;;;;;;;16.55;14.65;;;;;;;19.82;80.99;100711.31;1824943;77;20919;-75
2021/07/12 02:58:25;;;;;;;16.32;13.70;;;;;;;19.84;80.93;100714.67;1824816;78;20927;-77
2021/07/12 03:00:52;;;;;;;16.90;14.75;;;;;;;19.86;80.96;100714.86;1824806;78;20994;-75
2021/07/12 03:03:19;;;;;;;18.35;13.70;;;;;;;19.89;80.87;100716.38;1824881;77;22245;-78
2021/07/12 03:05:50;;;;;;;19.48;15.23;;;;;;;19.91;80.77;100710.41;1825030;77;20919;-77
2021/07/12 03:08:22;;;;;;;18.60;15.08;;;;;;;19.96;80.83;100715.28;1824578;78;20852;-78
2021/07/12 03:10:55;;;;;;;16.45;14.85;;;;;;;19.99;80.79;100712.34;1824872;77;20848;-74
2021/07/12 03:13:34;;;;;;;15.70;13.88;;;;;;;20.02;80.71;100711.52;1797985;78;20941;-75
2021/07/12 03:16:00;;;;;;;16.25;14.50;;;;;;;20.06;80.68;100702.75;1797606;78;21103;-75
2021/07/12 03:18:31;;;;;;;18.20;16.07;;;;;;;20.12;80.69;100703.95;1824699;78;21364;-77
2021/07/12 03:21:01;;;;;;;21.27;16.32;;;;;;;20.16;80.64;100705.33;1825096;78;20879;-76
2021/07/12 03:23:33;;;;;;;24.05;17.45;;;;;;;20.20;80.47;100700.88;1824719;77;20926;-76
2021/07/12 03:26:00;;;;;;;21.48;17.45;;;;;;;20.25;80.30;100698.61;1825086;77;20868;-76
2021/07/12 03:28:26;;;;;;;23.98;18.60;;;;;;;20.31;80.23;100697.64;1824734;78;21143;-77
2021/07/12 03:30:53;;;;;;;26.50;16.05;;;;;;;20.39;80.16;100699.05;1824942;78;20923;-75
2021/07/12 03:33:22;;;;;;;19.98;16.20;;;;;;;20.47;80.46;100701.26;1824862;78;20875;-76
2021/07/12 03:35:52;;;;;;;29.10;18.98;;;;;;;20.55;80.27;100705.00;1825167;77;21329;-76
2021/07/12 03:38:20;;;;;;;19.48;17.48;;;;;;;20.62;80.29;100703.41;1797947;78;20876;-75
2021/07/12 03:40:48;;;;;;;19.00;16.65;;;;;;;20.69;80.31;100698.63;1825005;78;21152;-75
2021/07/12 03:43:17;;;;;;;20.72;18.40;;;;;;;20.78;80.24;100702.19;1824476;78;20963;-75
2021/07/12 03:46:00;;;;;;;23.80;18.65;;;;;;;20.86;80.04;100698.75;1821427;78;20963;-75
2021/07/12 03:48:46;;;;;;;19.80;15.13;;;;;;;20.93;79.86;100702.95;1820920;78;20876;-77
2021/07/12 03:51:21;;;;;;;21.73;16.60;;;;;;;21.01;79.80;100706.52;1821340;78;21337;-76
2021/07/12 03:53:51;;;;;;;17.40;15.63;;;;;;;21.10;79.83;100704.23;1821497;78;21006;-78
2021/07/12 03:56:18;;;;;;;21.05;17.60;;;;;;;21.19;79.64;100705.11;1821799;78;20877;-76
2021/07/12 03:58:45;;;;;;;19.55;17.50;;;;;;;21.28;79.47;100696.14;1821394;78;20934;-77
2021/07/12 04:01:21;;;;;;;19.15;16.42;;;;;;;21.37;79.25;100699.68;1821367;78;20951;-78
2021/07/12 04:03:49;;;;;;;19.17;17.07;;;;;;;21.46;79.05;100708.59;1821439;78;20863;-77
2021/07/12 04:06:16;;;;;;;19.80;17.82;;;;;;;21.56;78.70;100707.94;1821703;78;22181;-79
2021/07/12 04:08:45;;;;;;;21.33;18.73;;;;;;;21.67;78.49;100701.48;1821505;78;20919;-79
2021/07/12 04:11:12;;;;;;;20.85;17.05;;;;;;;21.77;78.03;100703.52;1821836;78;20947;-77
2021/07/12 04:13:39;;;;;;;22.32;17.85;;;;;;;21.89;77.79;100692.84;1816539;78;20914;-77
2021/07/12 04:16:08;;;;;;;21.23;16.70;;;;;;;22.07;77.42;100694.55;1821503;78;21326;-77
2021/07/12 04:18:34;;;;;;;18.98;16.52;;;;;;;22.32;76.99;100692.75;1821444;78;21133;-79
2021/07/12 04:21:01;;;;;;;27.75;17.15;;;;;;;22.66;76.23;100681.88;1821832;78;20994;-79
2021/07/12 04:23:28;;;;;;;23.42;15.35;;;;;;;23.09;75.08;100685.66;1821505;78;20880;-78
2021/07/12 04:25:55;;;;;;;19.62;15.30;;;;;;;23.59;73.68;100680.43;1821740;78;20884;-78
2021/07/12 04:28:23;;;;;;;21.95;16.73;;;;;;;24.12;71.97;100689.98;1821510;78;20921;-79
2021/07/12 04:30:50;;;;;;;18.40;15.45;;;;;;;24.67;70.51;100688.04;1821486;78;21558;-75
2021/07/12 04:33:17;;;;;;;19.02;16.12;;;;;;;25.18;68.90;100689.49;1821294;78;20840;-76
2021/07/12 04:35:44;;;;;;;23.90;15.75;;;;;;;25.68;67.39;100693.73;1821454;78;21389;-76
2021/07/12 04:38:11;;;;;;;19.12;14.75;;;;;;;26.15;65.78;100693.77;1821405;78;21320;-74
2021/07/12 04:40:39;;;;;;;21.37;15.43;;;;;;;26.64;64.38;100691.61;1821368;78;20848;-75
2021/07/12 04:43:06;;;;;;;19.73;16.77;;;;;;;27.15;62.77;100694.52;1821561;78;21501;-76
2021/07/12 04:45:32;;;;;;;19.80;15.80;;;;;;;27.63;60.90;100686.44;1821442;78;20836;-76
2021/07/12 04:47:59;;;;;;;20.35;16.85;;;;;;;28.03;59.52;100690.60;1821432;78;20923;-75
2021/07/12 04:50:26;;;;;;;18.75;16.95;;;;;;;28.40;58.43;100686.48;1821706;78;21452;-75
2021/07/12 04:52:53;;;;;;;20.32;16.75;;;;;;;28.75;56.49;100686.28;1821628;78;21404;-75
2021/07/12 04:55:20;;;;;;;23.22;17.67;;;;;;;29.00;55.11;100685.60;1821423;78;21149;-76
2021/07/12 04:57:47;;;;;;;17.87;16.05;;;;;;;29.19;54.61;100685.25;1821694;78;20947;-75
2021/07/12 05:00:15;;;;;;;20.88;18.40;;;;;;;29.48;53.71;100688.78;1821489;78;20888;-76
2021/07/12 05:02:42;;;;;;;19.05;17.15;;;;;;;29.78;52.55;100684.17;1821558;78;20998;-76
2021/07/12 05:05:11;;;;;;;20.27;16.77;;;;;;;30.07;51.35;100679.20;1821361;78;20903;-73
2021/07/12 05:07:39;;;;;;;19.45;16.02;;;;;;;30.28;51.23;100682.06;1821643;78;21177;-76
2021/07/12 05:10:10;;;;;;;18.32;16.40;;;;;;;30.53;50.25;100674.78;1821285;78;20899;-76
2021/07/12 05:12:40;;;;;;;20.40;17.30;;;;;;;30.82;50.12;100669.70;1821850;78;20923;-76
2021/07/12 05:15:08;;;;;;;24.90;14.95;;;;;;;31.08;49.35;100674.03;1821167;78;20895;-77
2021/07/12 05:17:37;;;;;;;21.23;17.77;;;;;;;31.35;48.95;100673.17;1821399;78;20883;-79
2021/07/12 05:20:07;;;;;;;23.45;16.73;;;;;;;31.65;48.04;100671.02;1821328;78;21146;-75
2021/07/12 05:22:34;;;;;;;21.75;15.58;;;;;;;31.90;47.62;100676.27;1821792;78;21464;-75
2021/07/12 05:25:03;;;;;;;23.67;15.83;;;;;;;32.16;47.31;100668.82;1821539;78;20911;-76
2021/07/12 05:27:31;;;;;;;20.10;15.63;;;;;;;32.45;47.00;100664.89;1821679;78;20841;-74
2021/07/12 05:29:57;;;;;;;23.98;16.07;;;;;;;32.74;46.25;100678.06;1821537;78;20915;-76
2021/07/12 05:32:24;;;;;;;23.18;15.93;;;;;;;32.99;45.66;100670.45;1821658;78;21663;-74
2021/07/12 05:34:52;;;;;;;22.50;15.78;;;;;;;33.18;45.02;100669.80;1821315;78;21555;-73
2021/07/12 05:37:19;;;;;;;21.73;15.85;;;;;;;33.31;44.16;100670.06;1821537;78;20840;-72
2021/07/12 05:39:45;;;;;;;24.92;15.80;;;;;;;33.39;44.00;100670.20;1821342;78;20871;-73
2021/07/12 05:42:13;;;;;;;20.25;15.78;;;;;;;33.52;44.04;100670.45;1821338;78;21075;-71
2021/07/12 05:44:40;;;;;;;22.93;15.43;;;;;;;33.68;43.40;100669.69;1822533;78;21517;-73
2021/07/12 05:47:08;;;;;;;21.23;15.98;;;;;;;33.74;43.04;100665.17;1824697;78;20875;-72
2021/07/12 05:49:35;;;;;;;26.77;14.95;;;;;;;33.91;42.96;100665.20;1824896;78;21477;-71
2021/07/12 05:52:02;;;;;;;23.55;15.00;;;;;;;34.12;42.29;100662.30;1825058;78;20975;-74
2021/07/12 05:54:30;;;;;;;17.05;14.75;;;;;;;34.24;41.81;100657.07;1824852;78;20884;-81
2021/07/12 05:56:57;;;;;;;25.95;14.05;;;;;;;34.31;41.90;100662.86;1824893;78;21141;-84
2021/07/12 05:59:24;;;;;;;19.87;13.90;;;;;;;34.33;41.95;100662.08;1824809;78;20892;-83
2021/07/12 06:01:51;;;;;;;16.30;14.00;;;;;;;34.36;41.78;100662.95;1825095;78;20891;-82
2021/07/12 06:04:18;;;;;;;16.12;14.05;;;;;;;34.36;41.53;100665.14;1824840;78;20883;-78
2021/07/12 06:06:45;;;;;;;17.37;13.53;;;;;;;34.39;41.84;100659.73;1825129;78;21475;-82
2021/07/12 06:09:14;;;;;;;20.05;13.72;;;;;;;34.42;41.47;100666.87;1824842;78;21133;-76
2021/07/12 06:11:41;;;;;;;18.15;13.62;;;;;;;34.51;41.79;100671.36;1824913;78;20903;-78
2021/07/12 06:14:09;;;;;;;17.27;14.23;;;;;;;34.71;41.32;100669.49;1824759;78;21440;-80
2021/07/12 06:16:37;;;;;;;17.25;14.38;;;;;;;34.90;40.42;100665.91;1824678;78;20891;-79
2021/07/12 06:19:06;;;;;;;18.30;13.58;;;;;;;35.08;40.20;100670.22;1824852;78;21444;-78
2021/07/12 06:21:34;;;;;;;25.23;13.45;;;;;;;35.26;40.03;100673.19;1824790;78;21979;-75
2021/07/12 06:24:01;;;;;;;19.65;14.25;;;;;;;35.45;39.93;100667.69;1824960;78;20868;-75
2021/07/12 06:26:28;;;;;;;17.62;14.20;;;;;;;35.67;39.42;100673.67;1824873;78;20880;-78
2021/07/12 06:28:55;;;;;;;17.95;14.18;;;;;;;35.84;38.95;100670.30;1824975;78;20929;-74
2021/07/12 06:31:24;;;;;;;24.63;13.75;;;;;;;36.01;38.52;100669.33;1825122;78;20867;-80
2021/07/12 06:33:51;;;;;;;15.80;12.75;;;;;;;36.15;38.05;100676.56;1824860;78;22254;-81
2021/07/12 06:36:19;;;;;;;20.80;12.98;;;;;;;36.30;37.74;100669.30;1824748;78;20848;-80
2021/07/12 06:38:46;;;;;;;16.75;13.35;;;;;;;36.45;37.48;100676.78;1824854;78;21471;-81
2021/07/12 06:41:13;;;;;;;18.85;13.38;;;;;;;36.63;36.76;100674.19;1824725;78;20931;-76
2021/07/12 06:43:41;;;;;;;16.62;13.98;;;;;;;36.69;36.30;100677.78;1824752;78;20875;-68
2021/07/12 06:46:08;;;;;;;16.87;12.40;;;;;;;36.74;36.51;100676.99;1821763;78;21104;-72
2021/07/12 06:48:35;;;;;;;17.15;12.85;;;;;;;36.78;36.43;100684.39;1821209;78;21441;-71
2021/07/12 06:51:10;;;;;;;16.62;12.20;;;;;;;36.84;36.27;100678.39;1820494;78;20915;-73
2021/07/12 06:53:37;;;;;;;15.60;12.18;;;;;;;36.88;36.13;100680.87;1821736;78;20952;-74
2021/07/12 06:56:04;;;;;;;17.73;11.93;;;;;;;36.92;36.16;100689.64;1821397;78;20959;-72
2021/07/12 06:58:31;;;;;;;21.60;13.35;;;;;;;36.96;36.31;100688.58;1821606;78;21074;-73
2021/07/12 07:00:59;;;;;;;16.12;12.23;;;;;;;37.09;35.63;100681.83;1821232;78;20836;-78
2021/07/12 07:03:26;;;;;;;17.62;12.33;;;;;;;37.25;35.39;100685.44;1821209;78;21476;-75
2021/07/12 07:05:53;;;;;;;17.35;12.28;;;;;;;37.38;35.23;100682.75;1821475;78;20939;-76
2021/07/12 07:08:34;;;;;;;15.08;12.65;;;;;;;37.59;34.77;100683.08;1821453;78;20979;-76
2021/07/12 07:11:01;;;;;;;13.03;11.80;;;;;;;37.84;34.07;100682.31;1821645;78;21096;-76
2021/07/12 07:13:29;;;;;;;16.30;12.75;;;;;;;37.99;34.25;100680.66;1821572;78;21406;-80
2021/07/12 07:15:57;;;;;;;15.95;12.13;;;;;;;38.17;34.22;100677.38;1820654;78;20876;-78
2021/07/12 07:18:24;;;;;;;14.80;12.10;;;;;;;38.40;34.05;100680.64;1821621;78;20951;-77
2021/07/12 07:20:51;;;;;;;13.83;12.50;;;;;;;38.49;33.50;100675.73;1821472;78;20879;-74
2021/07/12 07:23:18;;;;;;;26.23;13.75;;;;;;;38.51;33.36;100676.28;1821483;78;21190;-74
2021/07/12 07:25:45;;;;;;;15.18;13.32;;;;;;;38.54;33.37;100675.72;1821669;78;21468;-76
2021/07/12 07:28:12;;;;;;;17.45;13.28;;;;;;;38.60;33.58;100678.43;1821483;78;20962;-76
2021/07/12 07:30:40;;;;;;;16.97;12.10;;;;;;;38.76;33.56;100669.08;1821373;78;20907;-78
2021/07/12 07:33:17;;;;;;;17.75;12.33;;;;;;;38.83;33.84;100679.75;1821505;78;20907;-71
2021/07/12 07:35:44;;;;;;;17.40;11.95;;;;;;;38.84;33.57;100675.34;1821855;78;21773;-69
2021/07/12 07:38:13;;;;;;;13.93;12.60;;;;;;;38.95;33.50;100675.62;1821362;78;20969;-70
2021/07/12 07:40:41;;;;;;;21.85;13.80;;;;;;;38.97;33.25;100671.20;1820229;78;20844;-71
2021/07/12 07:43:09;;;;;;;14.40;12.88;;;;;;;38.98;33.24;100667.37;1821451;78;20871;-72
2021/07/12 07:45:36;;;;;;;15.15;13.25;;;;;;;39.04;33.07;100673.64;1823321;78;20947;-71
2021/07/12 07:48:04;;;;;;;13.80;12.47;;;;;;;39.15;32.64;100672.49;1825131;78;21498;-71
2021/07/12 07:50:32;;;;;;;17.98;12.80;;;;;;;39.23;32.60;100669.72;1825337;78;20836;-72
2021/07/12 07:52:59;;;;;;;15.10;12.85;;;;;;;39.35;32.89;100667.44;1824967;78;20907;-71
2021/07/12 07:55:26;;;;;;;21.70;12.00;;;;;;;39.50;32.41;100666.01;1825101;77;20900;-73
2021/07/12 07:57:53;;;;;;;14.58;11.68;;;;;;;39.55;31.93;100660.47;1824979;77;20883;-72
2021/07/12 08:00:21;;;;;;;13.40;10.70;;;;;;;39.67;32.20;100658.76;1824956;77;21888;-73
2021/07/12 08:02:48;;;;;;;18.40;11.55;;;;;;;39.81;32.11;100659.48;1825014;78;20868;-73
2021/07/12 08:05:15;;;;;;;12.85;11.50;;;;;;;39.93;31.98;100651.70;1824642;78;21503;-71
2021/07/12 08:07:43;;;;;;;17.87;12.85;;;;;;;40.04;31.60;100645.56;1824905;78;20962;-70
2021/07/12 08:10:12;;;;;;;17.07;11.93;;;;;;;40.01;31.81;100654.39;1824854;77;20848;-71
2021/07/12 08:12:40;;;;;;;13.90;11.18;;;;;;;39.95;31.79;100643.44;1825265;78;21094;-72
2021/07/12 08:15:10;;;;;;;12.33;11.03;;;;;;;39.91;31.62;100646.52;1824622;78;20907;-78
2021/07/12 08:17:37;;;;;;;14.85;10.50;;;;;;;39.89;32.41;100649.26;1825209;77;20899;-78
2021/07/12 08:20:06;;;;;;;15.35;11.10;;;;;;;39.97;31.77;100643.16;1824846;77;20975;-77
2021/07/12 08:22:35;;;;;;;13.05;11.75;;;;;;;40.07;32.37;100640.32;1824868;77;20947;-74
2021/07/12 08:25:06;;;;;;;13.98;11.63;;;;;;;40.25;32.46;100642.89;1824949;78;21569;-75
2021/07/12 08:27:32;;;;;;;11.12;10.03;;;;;;;40.48;31.77;100644.59;1825077;77;21009;-77
2021/07/12 08:30:01;;;;;;;12.20;10.88;;;;;;;40.61;31.16;100643.90;1824799;77;20836;-73
2021/07/12 08:32:29;;;;;;;14.23;11.12;;;;;;;40.65;31.52;100640.83;1824927;78;21583;-77
2021/07/12 08:34:56;;;;;;;12.78;11.55;;;;;;;40.76;30.78;100648.44;1824947;78;20895;-77
2021/07/12 08:37:23;;;;;;;11.73;10.72;;;;;;;40.76;30.48;100646.49;1825213;77;21093;-77
2021/07/12 08:39:50;;;;;;;11.35;10.15;;;;;;;40.78;30.93;100640.14;1824819;77;21057;-77
2021/07/12 08:42:19;;;;;;;11.50;10.48;;;;;;;40.72;30.49;100645.44;1824839;77;20973;-81
2021/07/12 08:44:47;;;;;;;11.50;10.43;;;;;;;40.61;30.56;100639.77;1824766;78;20999;-80
2021/07/12 08:47:14;;;;;;;12.53;10.30;;;;;;;40.49;30.41;100637.98;1824992;78;20951;-78
2021/07/12 08:49:41;;;;;;;11.70;10.60;;;;;;;40.32;30.44;100636.52;1824867;78;21131;-80
2021/07/12 08:52:08;;;;;;;11.30;10.28;;;;;;;40.10;30.58;100643.05;1825221;78;20911;-84
2021/07/12 08:54:37;;;;;;;13.28;9.70;;;;;;;39.80;30.74;100636.70;1824960;78;20947;-80
2021/07/12 08:57:05;;;;;;;14.60;11.12;;;;;;;39.66;30.90;100639.26;1797919;78;20950;-81
2021/07/12 08:59:39;;;;;;;11.78;10.70;;;;;;;39.60;30.88;100633.56;1824922;78;20966;-80
2021/07/12 09:02:11;;;;;;;11.90;10.60;;;;;;;39.53;31.11;100628.92;1824959;78;21132;-77
2021/07/12 09:04:43;;;;;;;12.20;10.45;;;;;;;39.51;31.22;100624.27;1825149;78;20840;-79
2021/07/12 09:07:13;;;;;;;11.28;9.75;;;;;;;39.48;31.23;100623.48;1825028;78;20914;-79
2021/07/12 09:09:40;;;;;;;10.88;9.90;;;;;;;39.47;30.82;100629.53;1825046;78;20883;-79
2021/07/12 09:12:16;;;;;;;11.22;10.08;;;;;;;39.41;30.93;100618.31;1825217;78;20935;-76
2021/07/12 09:15:04;;;;;;;10.80;9.38;;;;;;;39.41;30.91;100614.20;1824922;78;21297;-77
2021/07/12 09:17:33;;;;;;;9.68;7.33;;;;;;;39.47;31.02;100617.74;1824739;78;20872;-78
2021/07/12 09:20:00;;;;;;;8.15;7.42;;;;;;;39.58;30.59;100609.13;1825222;78;20915;-76
2021/07/12 09:22:35;;;;;;;10.28;8.53;;;;;;;39.79;29.52;100603.46;1825470;78;20947;-77
2021/07/12 09:25:08;;;;;;;11.08;7.60;;;;;;;39.92;29.84;100602.01;1825349;78;20982;-78
2021/07/12 09:27:37;;;;;;;8.90;8.20;;;;;;;40.05;30.09;100600.52;1798673;78;21463;-78
2021/07/12 09:30:11;;;;;;;8.38;7.53;;;;;;;40.24;28.90;100599.20;1825094;78;20923;-76
2021/07/12 09:32:41;;;;;;;8.60;7.72;;;;;;;40.38;28.33;100593.31;1824869;78;20856;-73
2021/07/12 09:35:17;;;;;;;8.53;7.85;;;;;;;40.58;28.21;100589.50;1825157;78;20856;-77
2021/07/12 09:37:48;;;;;;;11.20;7.97;;;;;;;40.68;27.37;100591.30;1825020;78;21014;-77
2021/07/12 09:40:17;;;;;;;9.60;8.08;;;;;;;40.52;27.78;100585.98;1824837;78;21111;-79
2021/07/12 09:42:47;;;;;;;8.20;7.37;;;;;;;40.53;28.05;100586.27;1824660;78;20935;-80
2021/07/12 09:45:19;;;;;;;7.20;6.30;;;;;;;40.68;28.04;100587.98;1824308;78;20860;-78
2021/07/12 09:47:48;;;;;;;7.17;6.47;;;;;;;40.79;26.48;100582.63;1825165;78;20927;-73
2021/07/12 09:50:23;;;;;;;6.67;6.03;;;;;;;40.86;26.53;100591.08;1824835;78;20919;-74
2021/07/12 09:52:53;;;;;;;10.03;7.10;;;;;;;40.93;25.59;100579.15;1825073;78;21111;-74
2021/07/12 09:55:35;;;;;;;6.55;5.97;;;;;;;41.00;26.04;100580.43;1824643;78;20876;-75
2021/07/12 09:58:16;;;;;;;7.67;6.00;;;;;;;40.94;25.68;100578.05;1823879;78;21279;-73
2021/07/12 10:00:55;;;;;;;6.83;6.28;;;;;;;40.89;25.75;100567.94;1824730;78;20888;-77
2021/07/12 10:03:22;;;;;;;5.62;5.12;;;;;;;40.73;24.68;100567.88;1824889;78;20903;-74
2021/07/12 10:05:49;;;;;;;7.08;6.37;;;;;;;40.63;25.57;100561.94;1825219;78;21113;-74
2021/07/12 10:08:16;;;;;;;6.70;5.37;;;;;;;40.68;25.73;100558.30;1825079;78;20943;-75
2021/07/12 10:10:45;;;;;;;9.53;5.75;;;;;;;40.81;25.79;100563.09;1824752;78;21424;-75
2021/07/12 10:13:13;;;;;;;5.70;5.20;;;;;;;40.94;25.86;100551.91;1824710;78;20950;-76
2021/07/12 10:15:40;;;;;;;6.40;5.35;;;;;;;41.05;24.53;100552.02;1824829;78;21449;-75
2021/07/12 10:18:16;;;;;;;6.95;6.12;;;;;;;41.09;25.31;100554.97;1824861;78;21092;-76
2021/07/12 10:20:38;;;;;;;11.50;5.65;;;;;;;40.76;25.90;100556.30;1821128;78;20911;-74
2021/07/12 10:23:07;;;;;;;7.10;6.28;;;;;;;40.35;26.20;100556.22;1824830;78;20934;-75
2021/07/12 10:25:36;;;;;;;13.45;7.15;;;;;;;39.76;27.37;100556.80;1824772;78;20978;-74
2021/07/12 10:28:08;;;;;;;11.80;7.60;;;;;;;39.18;29.09;100568.50;1824714;78;20970;-73
2021/07/12 10:30:41;;;;;;;;;;;;;;;38.61;30.19;100589.63;1827982;78;21566;-74
2021/07/12 10:33:10;;;;;;;12.75;9.15;;;;;;;37.88;34.94;100643.67;1796659;78;20077;-71
2021/07/12 10:35:47;;;;;;;14.00;10.72;;;;;;;36.91;38.01;100607.91;1825050;78;20946;-72
2021/07/12 10:38:19;;;;;;;12.15;8.78;;;;;;;36.00;38.30;100592.07;1824839;78;20962;-72
2021/07/12 10:41:01;;;;;;;11.25;8.38;;;;;;;35.17;41.45;100582.84;1824821;78;20895;-72
2021/07/12 10:43:46;;;;;;;9.33;7.50;;;;;;;34.72;43.88;100579.04;1825320;78;21068;-71
2021/07/12 10:46:31;;;;;;;9.40;8.08;;;;;;;34.44;44.77;100576.22;1824769;78;20840;-71
2021/07/12 10:49:04;;;;;;;8.73;8.00;;;;;;;34.34;46.94;100584.77;1824889;78;20883;-72
2021/07/12 10:51:37;;;;;;;9.50;8.70;;;;;;;34.32;48.33;100575.48;1824587;78;20879;-72
2021/07/12 10:54:09;;;;;;;11.93;8.23;;;;;;;34.41;49.29;100567.16;1824847;78;20907;-72
2021/07/12 10:56:56;;;;;;;10.55;8.85;;;;;;;34.61;50.36;100563.07;1825223;78;21441;-70
2021/07/12 11:01:41;;;;;;;9.83;7.62;;;;;;;35.02;48.89;100551.33;1798650;79;22457;-72
2021/07/12 11:04:32;;;;;;;8.90;8.13;;;;;;;35.17;50.73;100556.94;1758313;81;20868;-72
2021/07/12 11:07:05;;;;;;;9.68;8.75;;;;;;;35.42;49.57;100552.29;1758223;81;20975;-71
2021/07/12 11:09:57;;;;;;;9.20;8.40;;;;;;;35.79;48.00;100552.05;1758558;81;21002;-72
2021/07/12 11:12:41;;;;;;;12.80;9.20;;;;;;;36.12;45.11;100550.13;1758569;81;21027;-72
2021/07/12 11:15:12;;;;;;;11.40;8.20;;;;;;;36.29;45.72;100547.49;1758464;80;21447;-71
2021/07/12 11:18:01;;;;;;;10.53;8.10;;;;;;;36.52;44.74;100542.67;1758451;81;20959;-71
2021/07/12 11:20:51;;;;;;;9.15;8.25;;;;;;;36.75;43.47;100542.78;1758738;80;21038;-71
2021/07/12 11:23:56;;;;;;;9.83;7.47;;;;;;;36.87;42.59;100545.30;1696666;83;20884;-72
2021/07/12 11:26:29;;;;;;;8.10;7.37;;;;;;;36.91;41.27;100551.87;1709614;83;20924;-73
2021/07/12 11:29:04;;;;;;;9.93;7.62;;;;;;;36.86;41.40;100554.56;1709246;83;21437;-72
2021/07/12 11:31:56;;;;;;;8.98;8.08;;;;;;;36.67;41.47;100560.53;1678774;85;21649;-73